Time;durP1;ratioP1;P1;durP2;ratioP2;P2;SDS_P1;SDS_P2;PMS_P1;PMS_P2;Temp;Humidity;BMP_temperature;BMP_pressure;BME280_temperature;BME280_humidity;BME280_pressure;Samples;Min_cycle;Max_cycle;Signal;HPM_P1;HPM_P2
2023/07/28 00:01:47;;;;;;;;;;;;;;;;;;5008448;28;20585;-69
2023/07/28 00:04:15;;;;;;;;;;;;;;;;;;5010939;28;20007;-72
2023/07/28 00:06:40;;;;;;;;;;;;;;;;;;5010847;28;19917;-72
2023/07/28 00:09:08;;;;;;;;;;;;;;;;;;4990523;28;19921;-69
2023/07/28 00:11:34;;;;;;;;;;;;;;;;;;5011725;28;19929;-74
2023/07/28 00:14:04;;;;;;;;;;;;;;;;;;4989030;28;19932;-76
2023/07/28 00:16:30;;;;;;;;;;;;;;;;;;4991836;28;20491;-68
2023/07/28 00:18:55;;;;;;;;;;;;;;;;;;5010785;28;19939;-70
2023/07/28 00:21:20;;;;;;;;;;;;;;;;;;4992264;28;19917;-70
2023/07/28 00:23:46;;;;;;;;;;;;;;;;;;4988254;28;20300;-70
2023/07/28 00:26:11;;;;;;;;;;;;;;;;;;4988082;28;19999;-70
2023/07/28 00:28:39;;;;;;;;;;;;;;;;;;4991087;28;19944;-70
2023/07/28 00:31:04;;;;;;;;;;;;;;;;;;4991708;28;20044;-71
2023/07/28 00:33:29;;;;;;;;;;;;;;;;;;5008181;28;19978;-69
2023/07/28 00:35:55;;;;;;;;;;;;;;;;;;5001258;28;19928;-72
2023/07/28 00:38:20;;;;;;;;;;;;;;;;;;4988591;28;20137;-71
2023/07/28 00:40:45;;;;;;;;;;;;;;;;;;4995557;28;19921;-71
2023/07/28 00:43:14;;;;;;;;;;;;;;;;;;5007682;28;19932;-72
2023/07/28 00:45:39;;;;;;;;;;;;;;;;;;5007931;28;19917;-72
2023/07/28 00:48:04;;;;;;;;;;;;;;;;;;5012040;28;19928;-71
2023/07/28 00:50:30;;;;;;;;;;;;;;;;;;4990336;28;19921;-70
2023/07/28 00:52:55;;;;;;;;;;;;;;;;;;5008834;28;19922;-71
2023/07/28 00:55:20;;;;;;;;;;;;;;;;;;4990023;28;19947;-70
2023/07/28 00:57:48;;;;;;;;;;;;;;;;;;4991221;28;19917;-71
2023/07/28 01:00:13;;;;;;;;;;;;;;;;;;4990694;28;19960;-70
2023/07/28 01:02:41;;;;;;;;;;;;;;;;;;5008626;28;20062;-72
2023/07/28 01:05:06;;;;;;;;;;;;;;;;;;4989432;28;19932;-71
2023/07/28 01:07:31;;;;;;;;;;;;;;;;;;4987718;28;19917;-70
2023/07/28 01:09:57;;;;;;;;;;;;;;;;;;5010756;28;20004;-72
2023/07/28 01:12:22;;;;;;;;;;;;;;;;;;5004917;28;19917;-71
2023/07/28 01:14:48;;;;;;;;;;;;;;;;;;4990908;28;20757;-71
2023/07/28 01:17:13;;;;;;;;;;;;;;;;;;4989211;28;20016;-72
2023/07/28 01:19:38;;;;;;;;;;;;;;;;;;5007344;28;20610;-73
2023/07/28 01:22:04;;;;;;;;;;;;;;;;;;4988704;28;19929;-72
2023/07/28 01:24:29;;;;;;;;;;;;;;;;;;4988371;28;20020;-71
2023/07/28 01:26:54;;;;;;;;;;;;;;;;;;4991002;28;19927;-71
2023/07/28 01:29:20;;;;;;;;;;;;;;;;;;5008892;28;19920;-71
2023/07/28 01:31:45;;;;;;;;;;;;;;;;;;5010311;28;19921;-71
2023/07/28 01:34:11;;;;;;;;;;;;;;;;;;4973752;28;19921;-72
2023/07/28 01:36:39;;;;;;;;;;;;;;;;;;5008839;28;19979;-70
2023/07/28 01:39:04;;;;;;;;;;;;;;;;;;5008544;28;19921;-70
2023/07/28 01:41:30;;;;;;;;;;;;;;;;;;4987330;28;19967;-72
2023/07/28 01:43:58;;;;;;;;;;;;;;;;;;4993245;28;19921;-72
2023/07/28 01:46:23;;;;;;;;;;;;;;;;;;4994508;28;19921;-72
2023/07/28 01:48:48;;;;;;;;;;;;;;;;;;5013219;28;19924;-72
2023/07/28 01:51:13;;;;;;;;;;;;;;;;;;4995917;28;20079;-70
2023/07/28 01:53:39;;;;;;;;;;;;;;;;;;5011975;28;19968;-73
2023/07/28 01:56:04;;;;;;;;;;;;;;;;;;4993217;28;20076;-72
2023/07/28 01:58:29;;;;;;;;;;;;;;;;;;4993492;28;19917;-73
2023/07/28 02:00:55;;;;;;;;;;;;;;;;;;4997046;28;20447;-72
2023/07/28 02:03:23;;;;;;;;;;;;;;;;;;5011576;28;19924;-73
2023/07/28 02:05:52;;;;;;;;;;;;;;;;;;5012993;28;20339;-71
2023/07/28 02:08:17;;;;;;;;;;;;;;;;;;4980941;28;20147;-69
2023/07/28 02:10:42;;;;;;;;;;;;;;;;;;5010232;28;19924;-71
2023/07/28 02:13:10;;;;;;;;;;;;;;;;;;5012490;28;19917;-70
2023/07/28 02:15:36;;;;;;;;;;;;;;;;;;4996073;28;19961;-70
2023/07/28 02:18:04;;;;;;;;;;;;;;;;;;4997046;28;20036;-71
2023/07/28 02:20:29;;;;;;;;;;;;;;;;;;5013824;28;19921;-72
2023/07/28 02:22:56;;;;;;;;;;;;;;;;;;4992930;28;19917;-71
2023/07/28 02:25:21;;;;;;;;;;;;;;;;;;4995591;28;20488;-70
2023/07/28 02:27:49;;;;;;;;;;;;;;;;;;5015831;28;20035;-71
2023/07/28 02:30:17;;;;;;;;;;;;;;;;;;4995155;28;19921;-70
2023/07/28 02:32:43;;;;;;;;;;;;;;;;;;5016060;28;19913;-71
2023/07/28 02:35:10;;;;;;;;;;;;;;;;;;4946616;28;1906448;-70
2023/07/28 02:37:35;;;;;;;;;;;;;;;;;;4993636;28;20011;-71
2023/07/28 02:40:00;;;;;;;;;;;;;;;;;;4997333;28;20364;-70
2023/07/28 02:42:26;;;;;;;;;;;;;;;;;;4995571;28;19917;-70
2023/07/28 02:44:51;;;;;;;;;;;;;;;;;;4994000;28;20694;-70
2023/07/28 02:47:17;;;;;;;;;;;;;;;;;;5009962;28;19917;-72
2023/07/28 02:49:43;;;;;;;;;;;;;;;;;;4993094;28;19998;-71
2023/07/28 02:52:08;;;;;;;;;;;;;;;;;;5011385;28;19928;-72
2023/07/28 02:54:34;;;;;;;;;;;;;;;;;;4993094;28;19925;-72
2023/07/28 02:56:59;;;;;;;;;;;;;;;;;;4992805;28;19963;-71
2023/07/28 02:59:24;;;;;;;;;;;;;;;;;;5011082;28;20358;-70
2023/07/28 03:01:53;;;;;;;;;;;;;;;;;;4993394;28;19967;-73
2023/07/28 03:04:21;;;;;;;;;;;;;;;;;;4993343;28;19921;-71
2023/07/28 03:06:47;;;;;;;;;;;;;;;;;;4992212;28;19932;-71
2023/07/28 03:09:15;;;;;;;;;;;;;;;;;;4993372;28;19928;-72
2023/07/28 03:11:40;;;;;;;;;;;;;;;;;;4991627;28;20438;-72
2023/07/28 03:14:05;;;;;;;;;;;;;;;;;;4992914;28;20359;-71
2023/07/28 03:16:31;;;;;;;;;;;;;;;;;;5009898;28;21844;-72
2023/07/28 03:18:56;;;;;;;;;;;;;;;;;;5013056;28;19944;-73
2023/07/28 03:21:21;;;;;;;;;;;;;;;;;;5004322;28;19921;-73
2023/07/28 03:23:47;;;;;;;;;;;;;;;;;;5012271;28;19928;-72
2023/07/28 03:26:12;;;;;;;;;;;;;;;;;;4991432;28;19916;-72
2023/07/28 03:28:37;;;;;;;;;;;;;;;;;;5008030;28;19929;-72
2023/07/28 03:31:03;;;;;;;;;;;;;;;;;;4992745;28;19959;-71
2023/07/28 03:33:28;;;;;;;;;;;;;;;;;;5012562;28;19996;-72
2023/07/28 03:35:54;;;;;;;;;;;;;;;;;;5010691;28;19929;-72
2023/07/28 03:38:19;;;;;;;;;;;;;;;;;;4992271;28;19932;-72
2023/07/28 03:40:44;;;;;;;;;;;;;;;;;;4995702;28;20954;-75
2023/07/28 03:43:10;;;;;;;;;;;;;;;;;;5011960;28;19916;-71
2023/07/28 03:45:35;;;;;;;;;;;;;;;;;;5004824;28;19943;-72
2023/07/28 03:48:00;;;;;;;;;;;;;;;;;;4972814;28;19924;-72
2023/07/28 03:50:27;;;;;;;;;;;;;;;;;;5009469;28;20575;-72
2023/07/28 03:52:53;;;;;;;;;;;;;;;;;;4976154;28;20023;-72
2023/07/28 03:55:20;;;;;;;;;;;;;;;;;;4992587;28;19921;-72
2023/07/28 03:57:46;;;;;;;;;;;;;;;;;;4988682;28;19932;-72
2023/07/28 04:00:13;;;;;;;;;;;;;;;;;;5009159;28;20537;-72
2023/07/28 04:02:39;;;;;;;;;;;;;;;;;;4991937;28;19921;-73
2023/07/28 04:05:04;;;;;;;;;;;;;;;;;;4991914;28;19924;-73
2023/07/28 04:07:32;;;;;;;;;;;;;;;;;;4991961;28;19936;-74
2023/07/28 04:09:57;;;;;;;;;;;;;;;;;;5009912;28;19940;-74
2023/07/28 04:12:22;;;;;;;;;;;;;;;;;;5011379;28;19924;-74
2023/07/28 04:14:48;;;;;;;;;;;;;;;;;;4992253;28;19925;-74
2023/07/28 04:17:13;;;;;;;;;;;;;;;;;;5010648;28;20360;-74
2023/07/28 04:19:41;;;;;;;;;;;;;;;;;;4989845;28;19921;-73
2023/07/28 04:22:06;;;;;;;;;;;;;;;;;;5010473;28;20672;-73
2023/07/28 04:24:31;;;;;;;;;;;;;;;;;;4992519;28;20400;-73
2023/07/28 04:26:57;;;;;;;;;;;;;;;;;;4990359;28;20395;-75
2023/07/28 04:29:24;;;;;;;;;;;;;;;;;;5008825;28;20633;-75
2023/07/28 04:31:49;;;;;;;;;;;;;;;;;;5007932;28;20388;-75
2023/07/28 04:34:15;;;;;;;;;;;;;;;;;;5008777;28;19971;-74
2023/07/28 04:36:40;;;;;;;;;;;;;;;;;;4991294;28;19937;-72
2023/07/28 04:39:08;;;;;;;;;;;;;;;;;;5008130;28;19921;-72
2023/07/28 04:41:33;;;;;;;;;;;;;;;;;;5010837;28;19928;-75
2023/07/28 04:43:58;;;;;;;;;;;;;;;;;;5010835;28;20751;-75
2023/07/28 04:46:26;;;;;;;;;;;;;;;;;;4988665;28;19932;-74
2023/07/28 04:48:51;;;;;;;;;;;;;;;;;;5011487;28;19917;-76
2023/07/28 04:51:16;;;;;;;;;;;;;;;;;;5009174;28;19924;-73
2023/07/28 04:53:42;;;;;;;;;;;;;;;;;;5011435;28;20372;-75
2023/07/28 04:56:07;;;;;;;;;;;;;;;;;;4990548;28;20156;-74
2023/07/28 04:58:33;;;;;;;;;;;;;;;;;;5008264;28;20563;-72
2023/07/28 05:00:58;;;;;;;;;;;;;;;;;;4988368;28;20233;-74
2023/07/28 05:03:23;;;;;;;;;;;;;;;;;;4990858;28;19921;-75
2023/07/28 05:05:52;;;;;;;;;;;;;;;;;;4988313;28;19976;-78
2023/07/28 05:08:17;;;;;;;;;;;;;;;;;;4991643;28;20666;-76
2023/07/28 05:10:43;;;;;;;;;;;;;;;;;;4991615;28;19921;-74
2023/07/28 05:13:08;;;;;;;;;;;;;;;;;;5009303;28;20324;-75
2023/07/28 05:15:33;;;;;;;;;;;;;;;;;;4990050;28;20376;-76
2023/07/28 05:17:59;;;;;;;;;;;;;;;;;;5005241;28;20429;-75
2023/07/28 05:20:24;;;;;;;;;;;;;;;;;;4989613;28;20383;-75
2023/07/28 05:22:49;;;;;;;;;;;;;;;;;;5010290;28;20008;-75
2023/07/28 05:25:17;;;;;;;;;;;;;;;;;;5010531;28;19956;-74
2023/07/28 05:27:43;;;;;;;;;;;;;;;;;;5010663;28;20454;-75
2023/07/28 05:30:10;;;;;;;;;;;;;;;;;;4988441;28;19917;-75
2023/07/28 05:32:36;;;;;;;;;;;;;;;;;;5006089;28;19996;-75
2023/07/28 05:35:01;;;;;;;;;;;;;;;;;;4987440;28;20765;-76
2023/07/28 05:37:26;;;;;;;;;;;;;;;;;;4991462;28;19963;-71
2023/07/28 05:39:51;;;;;;;;;;;;;;;;;;5009228;28;20004;-74
2023/07/28 05:42:19;;;;;;;;;;;;;;;;;;4992534;28;19935;-73
2023/07/28 05:44:45;;;;;;;;;;;;;;;;;;5010563;28;19917;-74
2023/07/28 05:47:10;;;;;;;;;;;;;;;;;;5006957;28;20195;-74
2023/07/28 05:49:35;;;;;;;;;;;;;;;;;;5007016;28;19921;-75
2023/07/28 05:52:01;;;;;;;;;;;;;;;;;;5010395;28;21559;-75
2023/07/28 05:54:26;;;;;;;;;;;;;;;;;;4992987;28;19951;-76
2023/07/28 05:56:51;;;;;;;;;;;;;;;;;;4991433;28;19996;-76
2023/07/28 05:59:17;;;;;;;;;;;;;;;;;;4993317;28;19929;-76
2023/07/28 06:01:45;;;;;;;;;;;;;;;;;;5007363;28;19923;-76
2023/07/28 06:04:12;;;;;;;;;;;;;;;;;;5008686;28;20317;-78
2023/07/28 06:06:38;;;;;;;;;;;;;;;;;;5006604;28;19925;-77
2023/07/28 06:09:03;;;;;;;;;;;;;;;;;;5011524;28;20398;-73
2023/07/28 06:11:31;;;;;;;;;;;;;;;;;;5008003;28;19929;-77
2023/07/28 06:13:57;;;;;;;;;;;;;;;;;;5011689;28;20023;-77
2023/07/28 06:16:24;;;;;;;;;;;;;;;;;;4993685;28;19917;-77
2023/07/28 06:18:49;;;;;;;;;;;;;;;;;;4990250;28;20417;-74
2023/07/28 06:21:14;;;;;;;;;;;;;;;;;;5010033;28;19921;-76
2023/07/28 06:23:40;;;;;;;;;;;;;;;;;;5009699;28;20522;-76
2023/07/28 06:26:05;;;;;;;;;;;;;;;;;;4990214;28;20019;-76
2023/07/28 06:28:33;;;;;;;;;;;;;;;;;;4994451;28;20340;-73
2023/07/28 06:30:58;;;;;;;;;;;;;;;;;;5012037;28;20271;-74
2023/07/28 06:33:24;;;;;;;;;;;;;;;;;;5013455;28;19932;-76
2023/07/28 06:35:49;;;;;;;;;;;;;;;;;;5011731;28;19936;-77
2023/07/28 06:38:14;;;;;;;;;;;;;;;;;;5013947;28;19923;-74
2023/07/28 06:40:39;;;;;;;;;;;;;;;;;;4997107;28;20047;-77
2023/07/28 06:43:07;;;;;;;;;;;;;;;;;;5011967;28;19927;-76
2023/07/28 06:45:32;;;;;;;;;;;;;;;;;;4995584;28;19923;-74
2023/07/28 06:47:57;;;;;;;;;;;;;;;;;;4994296;28;20564;-76
2023/07/28 06:50:23;;;;;;;;;;;;;;;;;;4993504;28;19921;-75
2023/07/28 06:52:51;;;;;;;;;;;;;;;;;;4995635;28;19975;-72
2023/07/28 06:55:17;;;;;;;;;;;;;;;;;;5008684;28;19933;-72
2023/07/28 06:57:42;;;;;;;;;;;;;;;;;;4980600;28;20428;-75
2023/07/28 07:00:09;;;;;;;;;;;;;;;;;;5011268;28;20409;-74
2023/07/28 07:02:34;;;;;;;;;;;;;;;;;;4995367;28;19917;-76
2023/07/28 07:04:59;;;;;;;;;;;;;;;;;;5010014;28;19964;-78
2023/07/28 07:07:25;;;;;;;;;;;;;;;;;;5013108;28;19956;-76
2023/07/28 07:09:51;;;;;;;;;;;;;;;;;;4995278;28;19953;-76
2023/07/28 07:12:16;;;;;;;;;;;;;;;;;;5012951;28;19921;-76
2023/07/28 07:14:41;;;;;;;;;;;;;;;;;;5012635;28;20070;-75
2023/07/28 07:17:09;;;;;;;;;;;;;;;;;;4992876;28;20003;-77
2023/07/28 07:19:37;;;;;;;;;;;;;;;;;;5012757;28;20016;-78
2023/07/28 07:22:02;;;;;;;;;;;;;;;;;;4994892;28;19921;-78
2023/07/28 07:24:28;;;;;;;;;;;;;;;;;;5012993;28;19924;-75
2023/07/28 07:26:53;;;;;;;;;;;;;;;;;;4994983;28;20620;-77
2023/07/28 07:29:19;;;;;;;;;;;;;;;;;;5012710;28;20372;-75
2023/07/28 07:31:44;;;;;;;;;;;;;;;;;;5013402;28;19921;-77
2023/07/28 07:34:09;;;;;;;;;;;;;;;;;;5012427;28;19925;-77
2023/07/28 07:36:34;;;;;;;;;;;;;;;;;;5002990;28;19988;-79
2023/07/28 07:39:00;;;;;;;;;;;;;;;;;;4994555;28;19921;-76
2023/07/28 07:41:25;;;;;;;;;;;;;;;;;;4995627;28;19924;-76
2023/07/28 07:43:51;;;;;;;;;;;;;;;;;;4994767;28;19921;-77
2023/07/28 07:46:16;;;;;;;;;;;;;;;;;;4997002;28;20142;-78
2023/07/28 07:48:44;;;;;;;;;;;;;;;;;;4992224;28;19936;-78
2023/07/28 07:51:10;;;;;;;;;;;;;;;;;;4960901;28;19922;-76
2023/07/28 07:53:36;;;;;;;;;;;;;;;;;;4977289;28;19944;-74
2023/07/28 07:56:03;;;;;;;;;;;;;;;;;;4991354;28;19921;-77
2023/07/28 07:58:28;;;;;;;;;;;;;;;;;;4993864;28;20811;-75
2023/07/28 08:00:54;;;;;;;;;;;;;;;;;;4960995;28;20799;-74
2023/07/28 08:03:20;;;;;;;;;;;;;;;;;;4978190;28;19925;-73
2023/07/28 08:05:45;;;;;;;;;;;;;;;;;;4974876;28;19918;-78
2023/07/28 08:08:15;;;;;;;;;;;;;;;;;;4978909;28;19969;-73
2023/07/28 08:10:40;;;;;;;;;;;;;;;;;;4993463;28;19928;-76
2023/07/28 08:13:08;;;;;;;;;;;;;;;;;;4978718;28;20281;-75
2023/07/28 08:15:33;;;;;;;;;;;;;;;;;;4961436;28;20439;-78
2023/07/28 08:17:58;;;;;;;;;;;;;;;;;;4975697;28;20092;-73
2023/07/28 08:20:27;;;;;;;;;;;;;;;;;;4992534;28;20116;-76
2023/07/28 08:22:54;;;;;;;;;;;;;;;;;;4990501;28;20376;-76
2023/07/28 08:25:23;;;;;;;;;;;;;;;;;;4977317;28;19931;-76
2023/07/28 08:27:53;;;;;;;;;;;;;;;;;;4974706;28;19927;-80
2023/07/28 08:30:18;;;;;;;;;;;;;;;;;;4978270;28;19927;-76
2023/07/28 08:32:43;;;;;;;;;;;;;;;;;;4995144;28;19917;-71
2023/07/28 08:35:09;;;;;;;;;;;;;;;;;;4996081;28;19926;-76
2023/07/28 08:37:34;;;;;;;;;;;;;;;;;;4972320;28;19924;-78
2023/07/28 08:39:59;;;;;;;;;;;;;;;;;;5011564;28;19952;-77
2023/07/28 08:42:25;;;;;;;;;;;;;;;;;;5011885;28;19960;-74
2023/07/28 08:44:52;;;;;;;;;;;;;;;;;;4993310;28;19960;-77
2023/07/28 08:47:17;;;;;;;;;;;;;;;;;;4990040;28;19987;-76
2023/07/28 08:49:42;;;;;;;;;;;;;;;;;;5012326;28;20372;-77
2023/07/28 08:52:08;;;;;;;;;;;;;;;;;;4976685;28;21776;-81
2023/07/28 08:54:33;;;;;;;;;;;;;;;;;;5009307;28;20388;-73
2023/07/28 08:56:58;;;;;;;;;;;;;;;;;;5009555;28;19971;-78
2023/07/28 08:59:27;;;;;;;;;;;;;;;;;;4994269;28;20438;-75
2023/07/28 09:01:52;;;;;;;;;;;;;;;;;;4994871;28;19917;-77
2023/07/28 09:04:18;;;;;;;;;;;;;;;;;;4994599;28;19921;-79
2023/07/28 09:06:43;;;;;;;;;;;;;;;;;;5008988;28;19948;-79
2023/07/28 09:09:11;;;;;;;;;;;;;;;;;;4977923;28;20295;-77
2023/07/28 09:11:39;;;;;;;;;;;;;;;;;;4993864;28;20047;-78
2023/07/28 09:14:04;;;;;;;;;;;;;;;;;;5009720;28;20502;-80
2023/07/28 09:16:32;;;;;;;;;;;;;;;;;;4994713;28;20854;-76
2023/07/28 09:19:00;;;;;;;;;;;;;;;;;;5011216;28;20340;-79
2023/07/28 09:21:25;;;;;;;;;;;;;;;;;;5011374;28;19921;-77
2023/07/28 09:23:51;;;;;;;;;;;;;;;;;;4993169;28;20011;-79
2023/07/28 09:26:19;;;;;;;;;;;;;;;;;;4976364;28;20514;-75
2023/07/28 09:28:44;;;;;;;;;;;;;;;;;;4992028;28;20307;-79
2023/07/28 09:31:10;;;;;;;;;;;;;;;;;;4976631;28;19928;-72
2023/07/28 09:33:36;;;;;;;;;;;;;;;;;;5007233;28;20420;-79
2023/07/28 09:36:01;;;;;;;;;;;;;;;;;;5010062;28;19982;-79
2023/07/28 09:38:26;;;;;;;;;;;;;;;;;;4993248;28;19917;-76
2023/07/28 09:40:52;;;;;;;;;;;;;;;;;;4994635;28;19943;-76
2023/07/28 09:43:17;;;;;;;;;;;;;;;;;;4992969;28;19921;-74
2023/07/28 09:45:42;;;;;;;;;;;;;;;;;;4992463;28;19928;-77
2023/07/28 09:48:08;;;;;;;;;;;;;;;;;;5013744;28;19983;-79
2023/07/28 09:50:35;;;;;;;;;;;;;;;;;;4991059;28;20051;-77
2023/07/28 09:53:01;;;;;;;;;;;;;;;;;;4992112;28;19917;-76
2023/07/28 09:55:27;;;;;;;;;;;;;;;;;;5009746;28;20595;-81
2023/07/28 09:57:55;;;;;;;;;;;;;;;;;;5008563;28;19917;-76
2023/07/28 10:00:23;;;;;;;;;;;;;;;;;;5011920;28;20028;-80
2023/07/28 10:02:48;;;;;;;;;;;;;;;;;;5008839;28;20418;-79
2023/07/28 10:05:16;;;;;;;;;;;;;;;;;;4997538;28;19925;-82
2023/07/28 10:07:41;;;;;;;;;;;;;;;;;;5015854;28;19917;-76
2023/07/28 10:10:07;;;;;;;;;;;;;;;;;;4998426;28;20303;-78
2023/07/28 10:12:32;;;;;;;;;;;;;;;;;;4998041;28;20711;-78
2023/07/28 10:14:57;;;;;;;;;;;;;;;;;;4998768;28;20412;-79
2023/07/28 10:17:23;;;;;;;;;;;;;;;;;;5016971;28;19917;-75
2023/07/28 10:19:49;;;;;;;;;;;;;;;;;;4996957;28;19999;-78
2023/07/28 10:22:17;;;;;;;;;;;;;;;;;;4990874;28;19923;-75
2023/07/28 10:24:45;;;;;;;;;;;;;;;;;;5015279;28;19932;-75
2023/07/28 10:27:13;;;;;;;;;;;;;;;;;;4996174;28;19932;-74
2023/07/28 10:29:38;;;;;;;;;;;;;;;;;;5011381;28;19917;-79
2023/07/28 10:32:04;;;;;;;;;;;;;;;;;;5013258;28;21031;-78
2023/07/28 10:34:30;;;;;;;;;;;;;;;;;;5015513;28;19917;-74
2023/07/28 10:36:57;;;;;;;;;;;;;;;;;;4980197;28;19983;-76
2023/07/28 10:39:22;;;;;;;;;;;;;;;;;;4995758;28;19960;-74
2023/07/28 10:41:48;;;;;;;;;;;;;;;;;;5012582;28;20073;-73
2023/07/28 10:44:14;;;;;;;;;;;;;;;;;;5012108;28;21212;-70
2023/07/28 10:46:39;;;;;;;;;;;;;;;;;;5014618;28;19917;-79
2023/07/28 10:49:08;;;;;;;;;;;;;;;;;;5015651;28;19921;-76
2023/07/28 10:51:37;;;;;;;;;;;;;;;;;;4996679;28;19917;-76
2023/07/28 10:54:03;;;;;;;;;;;;;;;;;;5009102;28;19921;-79
2023/07/28 10:56:28;;;;;;;;;;;;;;;;;;4997362;28;19921;-76
2023/07/28 10:58:56;;;;;;;;;;;;;;;;;;4997233;28;19917;-78
2023/07/28 11:01:24;;;;;;;;;;;;;;;;;;4998862;28;19917;-79
2023/07/28 11:03:51;;;;;;;;;;;;;;;;;;4996659;28;19979;-76
2023/07/28 11:06:19;;;;;;;;;;;;;;;;;;5014731;28;19956;-72
2023/07/28 11:08:47;;;;;;;;;;;;;;;;;;5012298;28;19943;-75
2023/07/28 11:11:12;;;;;;;;;;;;;;;;;;4995524;28;20659;-73
2023/07/28 11:13:41;;;;;;;;;;;;;;;;;;4996688;28;19924;-75
2023/07/28 11:16:06;;;;;;;;;;;;;;;;;;5009897;28;19921;-75
2023/07/28 11:18:34;;;;;;;;;;;;;;;;;;4997584;28;20463;-75
2023/07/28 11:20:59;;;;;;;;;;;;;;;;;;4994402;28;19921;-78
2023/07/28 11:23:25;;;;;;;;;;;;;;;;;;5016268;28;19924;-77
2023/07/28 11:25:53;;;;;;;;;;;;;;;;;;4994024;28;19924;-75
2023/07/28 11:28:18;;;;;;;;;;;;;;;;;;4997691;28;19921;-70
2023/07/28 11:30:43;;;;;;;;;;;;;;;;;;4996589;28;20442;-77
2023/07/28 11:33:09;;;;;;;;;;;;;;;;;;5014377;28;19928;-77
2023/07/28 11:35:35;;;;;;;;;;;;;;;;;;4996250;28;19963;-77
2023/07/28 11:38:00;;;;;;;;;;;;;;;;;;4996127;28;19929;-79
2023/07/28 11:40:28;;;;;;;;;;;;;;;;;;5014932;28;19947;-77
2023/07/28 11:42:53;;;;;;;;;;;;;;;;;;5013764;28;20350;-76
2023/07/28 11:45:18;;;;;;;;;;;;;;;;;;5015160;28;19932;-75
2023/07/28 11:47:46;;;;;;;;;;;;;;;;;;4994524;28;19963;-75
2023/07/28 11:50:12;;;;;;;;;;;;;;;;;;5007597;28;20047;-71
2023/07/28 11:52:37;;;;;;;;;;;;;;;;;;5010706;28;20837;-80
2023/07/28 11:55:05;;;;;;;;;;;;;;;;;;4993492;28;19960;-75
2023/07/28 11:57:33;;;;;;;;;;;;;;;;;;4995625;28;19945;-76
2023/07/28 11:59:58;;;;;;;;;;;;;;;;;;4993917;28;19921;-75
2023/07/28 12:02:24;;;;;;;;;;;;;;;;;;4989489;28;19917;-75
2023/07/28 12:04:55;;;;;;;;;;;;;;;;;;4994737;28;19927;-73
2023/07/28 12:07:21;;;;;;;;;;;;;;;;;;4995228;28;19928;-75
2023/07/28 12:09:53;;;;;;;;;;;;;;;;;;5013943;28;19921;-77
2023/07/28 12:12:18;;;;;;;;;;;;;;;;;;5010938;28;20471;-76
2023/07/28 12:14:46;;;;;;;;;;;;;;;;;;4978000;28;19928;-79
2023/07/28 12:17:12;;;;;;;;;;;;;;;;;;4990293;28;19921;-77
2023/07/28 12:19:37;;;;;;;;;;;;;;;;;;4979647;28;19917;-77
2023/07/28 12:22:07;;;;;;;;;;;;;;;;;;4977141;28;19943;-77
2023/07/28 12:24:32;;;;;;;;;;;;;;;;;;4977947;28;19979;-75
2023/07/28 12:27:02;;;;;;;;;;;;;;;;;;5014139;28;19941;-77
2023/07/28 12:29:28;;;;;;;;;;;;;;;;;;4994260;28;19986;-80
2023/07/28 12:31:56;;;;;;;;;;;;;;;;;;5011164;28;20768;-73
2023/07/28 12:34:21;;;;;;;;;;;;;;;;;;4995652;28;19928;-79
2023/07/28 12:36:50;;;;;;;;;;;;;;;;;;4977741;28;19921;-76
2023/07/28 12:39:16;;;;;;;;;;;;;;;;;;4993097;28;19931;-80
2023/07/28 12:41:41;;;;;;;;;;;;;;;;;;4994746;28;19932;-75
2023/07/28 12:44:07;;;;;;;;;;;;;;;;;;5011820;28;19941;-79
2023/07/28 12:46:32;;;;;;;;;;;;;;;;;;5011615;28;19921;-79
2023/07/28 12:48:58;;;;;;;;;;;;;;;;;;5014333;28;19964;-75
2023/07/28 12:51:26;;;;;;;;;;;;;;;;;;4992876;28;19931;-76
2023/07/28 12:53:51;;;;;;;;;;;;;;;;;;4996335;28;19921;-79
2023/07/28 12:56:17;;;;;;;;;;;;;;;;;;4991027;28;19917;-70
2023/07/28 12:58:45;;;;;;;;;;;;;;;;;;5012683;28;19921;-78
2023/07/28 13:01:11;;;;;;;;;;;;;;;;;;4991472;28;21820;-75
2023/07/28 13:03:39;;;;;;;;;;;;;;;;;;5013032;28;19927;-73
2023/07/28 13:06:08;;;;;;;;;;;;;;;;;;5009770;28;20034;-76
2023/07/28 13:08:36;;;;;;;;;;;;;;;;;;4978454;28;20031;-74
2023/07/28 13:11:03;;;;;;;;;;;;;;;;;;5012624;28;19928;-75
2023/07/28 13:13:33;;;;;;;;;;;;;;;;;;5011001;28;21986;-76
2023/07/28 13:16:00;;;;;;;;;;;;;;;;;;5009700;28;20851;-79
2023/07/28 13:18:26;;;;;;;;;;;;;;;;;;5012914;28;19921;-81
2023/07/28 13:20:51;;;;;;;;;;;;;;;;;;4992983;28;19974;-80
2023/07/28 13:23:17;;;;;;;;;;;;;;;;;;4997126;28;19925;-81
2023/07/28 13:25:44;;;;;;;;;;;;;;;;;;5012914;28;20032;-74
2023/07/28 13:28:09;;;;;;;;;;;;;;;;;;5009076;28;19917;-76
2023/07/28 13:30:35;;;;;;;;;;;;;;;;;;5010830;28;19955;-73
2023/07/28 13:33:03;;;;;;;;;;;;;;;;;;5010668;28;19952;-74
2023/07/28 13:35:28;;;;;;;;;;;;;;;;;;5012264;28;19921;-80
2023/07/28 13:37:54;;;;;;;;;;;;;;;;;;4995144;28;19948;-84
2023/07/28 13:40:22;;;;;;;;;;;;;;;;;;4994145;28;20559;-77
2023/07/28 13:42:47;;;;;;;;;;;;;;;;;;5009638;28;19921;-74
2023/07/28 13:45:13;;;;;;;;;;;;;;;;;;5012896;28;19933;-81
2023/07/28 13:47:38;;;;;;;;;;;;;;;;;;5012281;28;19961;-80
2023/07/28 13:50:04;;;;;;;;;;;;;;;;;;5013992;28;19917;-78
2023/07/28 13:52:29;;;;;;;;;;;;;;;;;;4995137;28;19924;-76
2023/07/28 13:54:54;;;;;;;;;;;;;;;;;;4994168;28;20503;-78
2023/07/28 13:57:20;;;;;;;;;;;;;;;;;;5011641;28;20470;-77
2023/07/28 13:59:45;;;;;;;;;;;;;;;;;;5011986;28;19925;-79
2023/07/28 14:02:10;;;;;;;;;;;;;;;;;;5012990;28;19916;-81
2023/07/28 14:04:38;;;;;;;;;;;;;;;;;;4996204;28;19925;-75
2023/07/28 14:07:03;;;;;;;;;;;;;;;;;;5012625;28;20119;-79
2023/07/28 14:09:31;;;;;;;;;;;;;;;;;;5014449;28;19917;-77
2023/07/28 14:11:56;;;;;;;;;;;;;;;;;;4995421;28;19913;-78
2023/07/28 14:14:24;;;;;;;;;;;;;;;;;;5015887;28;19983;-84
2023/07/28 14:16:50;;;;;;;;;;;;;;;;;;4981791;28;20276;-82
2023/07/28 14:19:18;;;;;;;;;;;;;;;;;;4999251;28;20430;-80
2023/07/28 14:21:43;;;;;;;;;;;;;;;;;;5015158;28;19921;-77
2023/07/28 14:24:10;;;;;;;;;;;;;;;;;;5014675;28;19992;-76
2023/07/28 14:26:36;;;;;;;;;;;;;;;;;;5014486;28;20008;-78
2023/07/28 14:29:04;;;;;;;;;;;;;;;;;;5014955;28;20482;-80
2023/07/28 14:31:29;;;;;;;;;;;;;;;;;;4998008;28;19928;-79
2023/07/28 14:33:54;;;;;;;;;;;;;;;;;;5011985;28;19921;-79
2023/07/28 14:36:22;;;;;;;;;;;;;;;;;;4999539;28;19925;-77
2023/07/28 14:38:53;;;;;;;;;;;;;;;;;;5009931;28;19984;-79
2023/07/28 14:41:18;;;;;;;;;;;;;;;;;;4996581;28;19961;-80
2023/07/28 14:43:44;;;;;;;;;;;;;;;;;;4998743;28;20046;-84
2023/07/28 14:46:09;;;;;;;;;;;;;;;;;;5014284;28;20062;-77
2023/07/28 14:48:35;;;;;;;;;;;;;;;;;;5015023;28;19921;-78
2023/07/28 14:51:00;;;;;;;;;;;;;;;;;;5014571;28;20039;-80
2023/07/28 14:53:25;;;;;;;;;;;;;;;;;;5019902;28;19928;-75
2023/07/28 14:55:51;;;;;;;;;;;;;;;;;;5018010;28;19918;-79
2023/07/28 14:58:16;;;;;;;;;;;;;;;;;;4989483;28;20090;-83
2023/07/28 15:00:41;;;;;;;;;;;;;;;;;;5019928;28;20014;-79
2023/07/28 15:03:07;;;;;;;;;;;;;;;;;;5004051;28;19924;-81
2023/07/28 15:05:32;;;;;;;;;;;;;;;;;;5001469;28;19925;-81
2023/07/28 15:08:00;;;;;;;;;;;;;;;;;;5002936;28;19921;-78
2023/07/28 15:10:25;;;;;;;;;;;;;;;;;;5019557;28;20333;-81
2023/07/28 15:12:50;;;;;;;;;;;;;;;;;;5003215;28;20012;-80
2023/07/28 15:15:16;;;;;;;;;;;;;;;;;;5000095;28;19921;-79
2023/07/28 15:17:41;;;;;;;;;;;;;;;;;;5016855;28;20881;-81
2023/07/28 15:20:06;;;;;;;;;;;;;;;;;;5021226;28;19932;-75
2023/07/28 15:22:32;;;;;;;;;;;;;;;;;;5016943;28;19946;-83
2023/07/28 15:24:58;;;;;;;;;;;;;;;;;;5021892;28;19962;-80
2023/07/28 15:27:23;;;;;;;;;;;;;;;;;;5020223;28;20285;-82
2023/07/28 15:29:48;;;;;;;;;;;;;;;;;;4987399;28;19932;-77
2023/07/28 15:32:14;;;;;;;;;;;;;;;;;;5021240;28;20801;-84
2023/07/28 15:34:39;;;;;;;;;;;;;;;;;;5003015;28;20604;-77
2023/07/28 15:37:05;;;;;;;;;;;;;;;;;;5016523;28;19948;-79
2023/07/28 15:39:30;;;;;;;;;;;;;;;;;;5002858;28;19913;-83
2023/07/28 15:41:56;;;;;;;;;;;;;;;;;;5005538;28;19913;-80
2023/07/28 15:44:21;;;;;;;;;;;;;;;;;;5017994;28;19968;-80
2023/07/28 15:46:48;;;;;;;;;;;;;;;;;;5001156;28;19928;-80
2023/07/28 15:49:13;;;;;;;;;;;;;;;;;;4997021;28;19968;-85
2023/07/28 15:51:38;;;;;;;;;;;;;;;;;;5001293;28;20349;-79
2023/07/28 15:54:05;;;;;;;;;;;;;;;;;;5001987;28;19921;-78
2023/07/28 15:56:30;;;;;;;;;;;;;;;;;;4997771;28;19995;-82
2023/07/28 15:58:56;;;;;;;;;;;;;;;;;;5001237;28;20308;-82
2023/07/28 16:01:21;;;;;;;;;;;;;;;;;;4999177;28;19917;-81
2023/07/28 16:03:46;;;;;;;;;;;;;;;;;;5021725;28;19932;-78
2023/07/28 16:06:15;;;;;;;;;;;;;;;;;;5021070;28;19932;-80
2023/07/28 16:08:40;;;;;;;;;;;;;;;;;;5004276;28;19921;-83
2023/07/28 16:11:05;;;;;;;;;;;;;;;;;;5019731;28;19928;-78
2023/07/28 16:13:34;;;;;;;;;;;;;;;;;;5021333;28;19927;-84
2023/07/28 16:15:59;;;;;;;;;;;;;;;;;;4998532;28;20695;-83
2023/07/28 16:18:24;;;;;;;;;;;;;;;;;;5008758;28;19916;-79
2023/07/28 16:20:50;;;;;;;;;;;;;;;;;;5002092;28;20055;-80
2023/07/28 16:23:16;;;;;;;;;;;;;;;;;;5019128;28;20018;-78
2023/07/28 16:25:41;;;;;;;;;;;;;;;;;;4999241;28;21906;-79
2023/07/28 16:28:06;;;;;;;;;;;;;;;;;;5002119;28;20701;-75
2023/07/28 16:30:33;;;;;;;;;;;;;;;;;;5001012;28;19917;-71
2023/07/28 16:32:58;;;;;;;;;;;;;;;;;;5013892;28;20015;-79
2023/07/28 16:35:24;;;;;;;;;;;;;;;;;;5015544;28;19921;-79
2023/07/28 16:37:49;;;;;;;;;;;;;;;;;;4995799;28;19929;-78